createdAt,value
2018-08-02T00:00:02.786Z,95
2018-08-02T00:05:05.760Z,96.8
2018-08-02T00:10:02.563Z,96.7
2018-08-02T00:15:03.024Z,95.8
2018-08-02T00:20:03.531Z,94.9
2018-08-02T00:25:05.426Z,90.7
2018-08-02T00:30:02.805Z,90.7
2018-08-02T00:35:33.537Z,89.2
2018-08-02T00:40:03.339Z,89.2
2018-08-02T00:45:05.301Z,90
2018-08-02T00:50:05.177Z,90.3
2018-08-02T00:55:25.886Z,90.8
2018-08-02T01:00:03.224Z,90.9
2018-08-02T01:05:07.742Z,91.6
2018-08-02T01:10:03.530Z,91.6
2018-08-02T01:15:05.584Z,91.5
2018-08-02T01:20:05.587Z,91.5
2018-08-02T01:25:11.052Z,89.7
2018-08-02T01:30:03.482Z,89.6
2018-08-02T01:35:18.091Z,86.1
2018-08-02T01:40:20.736Z,83.6
2018-08-02T01:45:10.985Z,85.1
2018-08-02T01:50:18.536Z,86.3
2018-08-02T01:55:05.263Z,87.2
2018-08-02T02:00:05.260Z,88.9
2018-08-02T02:05:05.579Z,90.4
2018-08-02T02:10:05.983Z,91.5
2018-08-02T02:15:05.381Z,92.4
2018-08-02T02:20:02.805Z,92.3
2018-08-02T02:25:05.803Z,92.8
2018-08-02T02:30:05.754Z,92.8
2018-08-02T02:35:02.635Z,92.8
2018-08-02T02:40:03.473Z,92.9
2018-08-02T02:45:15.526Z,93
2018-08-02T02:50:07.975Z,93.1
2018-08-02T02:55:05.810Z,93
2018-08-02T03:00:05.754Z,92.9
2018-08-02T03:05:05.097Z,92.8
2018-08-02T03:10:02.934Z,92.7
2018-08-02T03:15:05.893Z,93.1
2018-08-02T03:20:05.880Z,93
2018-08-02T03:25:05.321Z,92.7
2018-08-02T03:30:07.729Z,92.5
2018-08-02T03:35:05.596Z,92.1
2018-08-02T03:40:11.010Z,92
2018-08-02T03:45:05.521Z,92
2018-08-02T03:50:02.982Z,92
2018-08-02T03:55:05.851Z,92.5
2018-08-02T04:00:03.295Z,92.5
2018-08-02T04:05:05.109Z,91.8
2018-08-02T04:10:05.437Z,91.6
2018-08-02T04:15:03.525Z,91.6
2018-08-02T04:20:02.972Z,91.6
2018-08-02T04:25:13.441Z,91.3
2018-08-02T04:30:10.460Z,91.4
2018-08-02T04:35:10.875Z,90.6
2018-08-02T04:40:07.753Z,89.7
2018-08-02T04:45:08.109Z,88.5
2018-08-02T04:50:11.071Z,87.3
2018-08-02T04:55:02.842Z,87.2
2018-08-02T05:00:21.078Z,86.4
2018-08-02T05:05:03.567Z,86.4
2018-08-02T05:10:08.552Z,85.5
2018-08-02T05:15:02.723Z,85.5
2018-08-02T05:20:08.269Z,83.9
2018-08-02T05:25:07.648Z,84.1
2018-08-02T05:30:05.741Z,83.4
2018-08-02T05:35:03.232Z,83.3
2018-08-02T05:40:05.387Z,83
2018-08-02T05:45:02.940Z,83
2018-08-02T05:50:08.292Z,83.3
2018-08-02T05:55:05.305Z,84
2018-08-02T06:00:02.677Z,84.1
2018-08-02T06:05:13.144Z,85.9
2018-08-02T06:10:23.259Z,87.1
2018-08-02T06:15:02.624Z,87.1
2018-08-02T06:20:13.228Z,88.3
2018-08-02T06:25:05.259Z,88.5
2018-08-02T06:30:02.958Z,88.5
2018-08-02T06:35:03.448Z,87.6
2018-08-02T06:40:03.214Z,87.1
2018-08-02T06:45:02.659Z,85.7
2018-08-02T06:50:03.022Z,84.6
2018-08-02T06:55:08.596Z,84.4
2018-08-02T07:00:08.056Z,84.8
2018-08-02T07:05:05.914Z,83.3
2018-08-02T07:10:02.683Z,83.2
2018-08-02T07:15:05.831Z,81.2
2018-08-02T07:20:21.062Z,80
2018-08-02T07:25:02.829Z,80
2018-08-02T07:30:05.745Z,81.6
2018-08-02T07:35:02.723Z,81.6
2018-08-02T07:40:03.537Z,81.4
2018-08-02T07:45:05.477Z,82.4
2018-08-02T07:50:05.482Z,83.7
2018-08-02T07:55:10.851Z,81.1
2018-08-02T08:00:08.547Z,82.3
2018-08-02T08:05:05.429Z,80.3
2018-08-02T08:10:03.300Z,80.2
2018-08-02T08:15:05.251Z,77.3
2018-08-02T08:20:23.318Z,74.7
2018-08-02T08:25:05.299Z,72.9
2018-08-02T08:30:02.627Z,72.9
2018-08-02T08:35:03.369Z,71.6
2018-08-02T08:40:03.460Z,71.3
2018-08-02T08:45:07.992Z,70.1
2018-08-02T08:50:08.468Z,69.5
2018-08-02T08:55:05.523Z,67.4
2018-08-02T09:00:02.977Z,67.4
2018-08-02T09:05:03.296Z,66.4
2018-08-02T09:10:03.129Z,65.3
2018-08-02T09:15:05.152Z,61.6
2018-08-02T09:20:05.213Z,62
2018-08-02T09:25:08.085Z,61.2
2018-08-02T09:30:06.002Z,60
2018-08-02T09:35:05.798Z,59.4
2018-08-02T09:40:05.203Z,59.7
2018-08-02T09:45:08.219Z,64.3
2018-08-02T09:50:02.736Z,64.1
2018-08-02T09:55:05.813Z,67
2018-08-02T10:00:15.879Z,75
2018-08-02T10:05:02.635Z,74.9
2018-08-02T10:10:03.524Z,75.8
2018-08-02T10:15:02.844Z,77.6
2018-08-02T10:20:05.910Z,77.8
2018-08-02T10:25:02.820Z,77.6
2018-08-02T10:30:03.376Z,74.7
2018-08-02T10:35:02.653Z,77.1
2018-08-02T10:40:03.514Z,76.9
2018-08-02T10:45:02.978Z,75.7
2018-08-02T10:50:03.555Z,75.3
2018-08-02T10:55:02.915Z,77
2018-08-02T11:00:05.303Z,77.6
2018-08-02T11:05:10.632Z,75.2
2018-08-02T11:10:06.021Z,74.1
2018-08-02T11:15:20.612Z,74.3
2018-08-02T11:20:13.157Z,74.7
2018-08-02T11:25:03.410Z,74.5
2018-08-02T11:30:02.933Z,73.3
2018-08-02T11:35:05.857Z,72
2018-08-02T11:40:05.240Z,72.7
2018-08-02T11:45:03.083Z,72.6
2018-08-02T11:50:05.981Z,72.1
2018-08-02T11:55:05.417Z,72.8
2018-08-02T12:00:05.509Z,72.8
2018-08-02T12:05:03.353Z,72.9
2018-08-02T12:10:06.017Z,72.9
2018-08-02T12:15:02.855Z,72.9
2018-08-02T12:20:03.672Z,71.9
2018-08-02T12:25:03.216Z,73.5
2018-08-02T12:30:07.650Z,70.5
2018-08-02T12:35:03.020Z,70.4
2018-08-02T12:40:05.450Z,70.7
2018-08-02T12:45:03.397Z,70.6
2018-08-02T12:50:03.244Z,69.7
2018-08-02T12:55:10.628Z,68.8
2018-08-02T13:00:18.243Z,69.3
2018-08-02T13:05:06.024Z,68.5
2018-08-02T13:10:05.515Z,68.2
2018-08-02T13:15:06.006Z,66.6
2018-08-02T13:20:08.543Z,66.1
2018-08-02T13:25:02.954Z,66.1
2018-08-02T13:30:18.605Z,65.4
2018-08-02T13:35:10.591Z,63.1
2018-08-02T13:40:05.356Z,62.4
2018-08-02T13:45:03.467Z,62.4
2018-08-02T13:50:05.463Z,59.5
2018-08-02T13:55:05.903Z,59.1
2018-08-02T14:00:03.536Z,59.1
2018-08-02T14:05:03.115Z,59.4
2018-08-02T14:10:03.267Z,59.5
2018-08-02T14:15:05.242Z,58.7
2018-08-02T14:20:02.703Z,58.8
2018-08-02T14:25:05.274Z,58.5
2018-08-02T14:30:05.326Z,58.8
2018-08-02T14:35:05.780Z,58.7
2018-08-02T14:40:02.688Z,58.8
2018-08-02T14:45:08.252Z,57.8
2018-08-02T14:50:07.743Z,56.9
2018-08-02T14:55:03.420Z,56.9
2018-08-02T15:00:05.428Z,53.6
2018-08-02T15:05:13.532Z,51
2018-08-02T15:10:07.617Z,51.2
2018-08-02T15:15:03.171Z,51.2
2018-08-02T15:20:05.279Z,53.1
2018-08-02T15:25:03.152Z,53.1
2018-08-02T15:30:07.631Z,52.1
2018-08-02T15:35:05.636Z,52.5
2018-08-02T15:40:02.677Z,52.5
2018-08-02T15:45:05.890Z,55.8
2018-08-02T15:50:03.379Z,55.8
2018-08-02T15:55:12.907Z,57
2018-08-02T16:00:03.371Z,57
2018-08-02T16:05:02.878Z,57.3
2018-08-02T16:10:05.321Z,55.2
2018-08-02T16:15:03.236Z,54.9
2018-08-02T16:20:05.355Z,55.7
2018-08-02T16:25:08.337Z,56
2018-08-02T16:30:03.043Z,56
2018-08-02T16:35:02.722Z,57.1
2018-08-02T16:40:07.663Z,58.4
2018-08-02T16:45:03.163Z,58.3
2018-08-02T16:50:07.747Z,59.1
2018-08-02T16:55:03.089Z,59.2
2018-08-02T17:00:03.614Z,59.3
2018-08-02T17:05:05.492Z,61.4
2018-08-02T17:10:03.544Z,61.4
2018-08-02T17:15:10.604Z,63.1
2018-08-02T17:20:03.088Z,63.2
2018-08-02T17:25:02.866Z,63
2018-08-02T17:30:05.824Z,62.7
2018-08-02T17:35:02.776Z,62.6
2018-08-02T17:40:10.258Z,63.4
2018-08-02T17:45:10.809Z,63.2
2018-08-02T17:50:03.356Z,63.2
2018-08-02T17:55:05.185Z,62.9
2018-08-02T18:00:05.116Z,63.7
2018-08-02T18:05:03.044Z,12.5
2018-08-02T18:10:18.187Z,64.8
2018-08-02T18:15:02.576Z,64.8
2018-08-02T18:20:03.072Z,64.9
2018-08-02T18:25:05.997Z,66.4
2018-08-02T18:30:10.961Z,66.4
2018-08-02T18:35:08.013Z,67.5
2018-08-02T18:40:05.741Z,68.6
2018-08-02T18:45:05.898Z,68.8
2018-08-02T18:50:05.918Z,69.4
2018-08-02T18:55:02.726Z,69.3
2018-08-02T19:00:10.790Z,68.3
2018-08-02T19:05:02.563Z,68.2
2018-08-02T19:10:06.014Z,68
2018-08-02T19:15:13.184Z,67.5
2018-08-02T19:20:02.741Z,67.5
2018-08-02T19:25:03.146Z,67.6
2018-08-02T19:30:07.662Z,68.1
2018-08-02T19:35:05.576Z,67.9
2018-08-02T19:40:06.112Z,65.2
2018-08-02T19:45:03.036Z,65.2
2018-08-02T19:50:03.387Z,64.2
2018-08-02T19:55:02.834Z,64
2018-08-02T20:00:05.854Z,62.3
2018-08-02T20:05:02.636Z,62.2
2018-08-02T20:10:18.762Z,60.4
2018-08-02T20:15:02.999Z,60.4
2018-08-02T20:20:03.476Z,59.7
2018-08-02T20:25:03.409Z,60
2018-08-02T20:30:13.036Z,59.6
2018-08-02T20:35:03.469Z,59.5
2018-08-02T20:40:03.360Z,60.2
2018-08-02T20:45:02.817Z,61.2
2018-08-02T20:50:05.680Z,60.9
2018-08-02T20:55:02.641Z,61.1
2018-08-02T21:00:08.118Z,62.6
2018-08-02T21:05:03.435Z,62.6
2018-08-02T21:10:05.773Z,62.7
2018-08-02T21:15:05.307Z,63.3
2018-08-02T21:20:05.272Z,62.4
2018-08-02T21:25:03.366Z,62.4
2018-08-02T21:30:05.387Z,64.3
2018-08-02T21:35:03.343Z,64.3
2018-08-02T21:40:03.244Z,64.8
2018-08-02T21:45:02.577Z,65
2018-08-02T21:50:05.520Z,65.9
2018-08-02T21:55:03.348Z,66
2018-08-02T22:00:02.794Z,67.3
2018-08-02T22:05:03.265Z,70
2018-08-02T22:10:10.758Z,70
2018-08-02T22:15:02.565Z,70
2018-08-02T22:20:05.604Z,72.7
2018-08-02T22:25:17.807Z,73.8
2018-08-02T22:30:03.184Z,73.8
2018-08-02T22:35:05.248Z,75.2
2018-08-02T22:40:05.680Z,75.9
2018-08-02T22:45:05.983Z,76.7
2018-08-02T22:50:03.386Z,76.7
2018-08-02T22:55:15.396Z,76.6
2018-08-02T23:00:05.307Z,77.2
2018-08-02T23:05:05.744Z,76.9
2018-08-02T23:10:11.236Z,76.3
2018-08-02T23:15:02.986Z,76.2
2018-08-02T23:20:08.493Z,76.7
2018-08-02T23:25:05.366Z,76.8
2018-08-02T23:30:05.300Z,76.3
2018-08-02T23:35:05.564Z,76.7
2018-08-02T23:40:03.444Z,76.7
2018-08-02T23:45:07.981Z,77.2
2018-08-02T23:50:05.844Z,78.6
2018-08-02T23:55:05.292Z,77.5
